METAR Data
IDs: Format: Raw Decoded Include TAF

Data at: 0030 UTC 26 Oct 2021

PAPN 260023Z AUTO 35011KT 4SM -SN BR FEW014 OVC029 00/M02 A2922 RMK AO2 P0000 FZRANO
PAPN 252356Z AUTO 36008KT 5SM -SN BR FEW013 OVC030 00/M02 A2922 RMK AO2 SLP895 P0000 60000 T00001017 10000 21017 50004 FZRANO
PAPN 252352Z AUTO 36008KT 5SM -SN BR FEW013 OVC030 M01/M02 A2922 RMK AO2 P0000 FZRANO
PAPN 252256Z AUTO 01010KT 4SM -SN BR FEW015 OVC022 M01/M02 A2921 RMK AO2 SLP892 P0000 T10061017 FZRANO
PAPN 252212Z AUTO 36012KT 6SM -SN BR BKN015 OVC020 M01/M01 A2920 RMK AO2 P0000 FZRANO
PAPN 252156Z AUTO 36010KT 4SM -SN BR BKN013 OVC031 M01/M01 A2920 RMK AO2 SLP891 P0000 T10061011 FZRANO
PAPN 252130Z AUTO 01008KT 3SM -SN BR BKN011 OVC031 M01/M01 A2920 RMK AO2 P0000 FZRANO
PAPN 252101Z AUTO 36011KT 2SM -SN BR FEW009 SCT025 OVC031 M01/M02 A2920 RMK AO2 P0000 FZRANO
PAPN 252056Z AUTO 36009KT 1 3/4SM -SN BR FEW009 BKN025 OVC031 M01/M02 A2920 RMK AO2 SLP890 P0000 60000 T10111017 51009 FZRANO
PAPN 252045Z AUTO 36011KT 1 3/4SM -SN BR FEW007 BKN017 OVC028 M01/M02 A2920 RMK AO2 P0000 FZRANO
PAPN 252037Z AUTO 36010KT 2SM -SN BR FEW007 BKN015 OVC022 M01/M02 A2920 RMK AO2 P0000 FZRANO
PAPN 252028Z AUTO 36010KT 1 3/4SM -SN BR FEW007 OVC017 M01/M02 A2920 RMK AO2 P0000 FZRANO
PAPN 252020Z AUTO 01010KT 1SM -SN BR SCT007 SCT010 OVC015 M01/M02 A2919 RMK AO2 P0000 FZRANO
PAPN 252008Z AUTO 01010KT 1SM -SN BR BKN007 OVC013 M01/M02 A2919 RMK AO2 CIG 004V010 P0000 FZRANO
PAPN 251956Z AUTO 36010KT 1 1/4SM -SN BR BKN007 OVC019 M01/M02 A2919 RMK AO2 SLP886 P0000 T10111017 FZRANO
PAPN 251951Z AUTO 01010KT 1 1/2SM -SN BR BKN007 OVC019 M01/M02 A2919 RMK AO2 P0000 FZRANO
PAPN 251930Z AUTO 01009G17KT 1 1/4SM -SN BR FEW007 OVC017 M01/M02 A2918 RMK AO2 P0000 FZRANO
PAPN 251922Z AUTO 01011KT 1 1/4SM -SN BR FEW007 BKN014 OVC019 M01/M02 A2918 RMK AO2 P0000 FZRANO
PAPN 251918Z AUTO 01012KT 1 1/4SM -SN BR OVC017 M01/M02 A2918 RMK AO2 P0000 FZRANO
PAPN 251856Z AUTO 02011KT 1SM -SN BR FEW005 BKN015 OVC021 M01/M02 A2918 RMK AO2 SLP882 P0000 T10111017 FZRANO
PAPN 251838Z AUTO 01010KT 1 1/4SM -SN BR SCT005 OVC023 M01/M02 A2918 RMK AO2 P0000 FZRANO
PAPN 251756Z AUTO 01010KT 1 1/2SM -SN BR BKN005 BKN019 OVC028 M02/M02 A2917 RMK AO2 SLP879 P0000 60000 T10171017 11006 21017 53004 FZRANO
PAPN 251751Z AUTO 01010KT 1 1/4SM -SN BR BKN005 BKN019 OVC028 M02/M02 A2917 RMK AO2 CIG 004V008 P0000 FZRANO
PAPN 251739Z AUTO 01011KT 1 1/2SM -SN BR SCT007 OVC028 M02/M02 A2917 RMK AO2 P0000 FZRANO
PAPN 251718Z AUTO 01011KT 2 1/2SM -SN BR SCT007 OVC028 M02/M02 A2917 RMK AO2 P0000 FZRANO
PAPN 251656Z AUTO 01012KT 4SM -SN BR OVC007 M02/M02 A2917 RMK AO2 CIG 006V010 SLP878 P0000 T10171022 FZRANO
PAPN 251556Z AUTO 01009KT 9SM -SN OVC007 M01/M02 A2916 RMK AO2 SNE06B25 SLP876 P0000 T10111017 FZRANO
PAPN 251525Z AUTO 01011KT 7SM -SN BKN007 OVC022 M02/M02 A2915 RMK AO2 SNE06B25 P0000 FZRANO
PAPN 251456Z AUTO 01012KT 8SM -SN SCT007 SCT011 OVC022 M02/M02 A2916 RMK AO2 SNB1358E10B29 SLP875 P0000 60000 T10171022 56007 FZRANO
PAPN 251431Z AUTO 02010KT 6SM -SN BR FEW007 BKN016 OVC021 M02/M02 A2916 RMK AO2 SNB1358E10B29 P0000 FZRANO
PAPN 251423Z AUTO 02010KT 7SM FEW007 OVC014 M02/M02 A2916 RMK AO2 SNB1358E10 P0000 FZRANO
PAPN 251356Z AUTO 02013KT 4SM BR BKN007 OVC012 M01/M02 A2916 RMK AO2 SNE12 CIG 006V010 SLP876 P0000 T10111017 FZRANO
PAPN 251256Z AUTO 01010KT 8SM -SN OVC007 M01/M02 A2917 RMK AO2 SNB16E32B56 SLP880 P0000 T10111017 FZRANO
PAPN 251247Z AUTO 02010KT 8SM OVC007 M01/M02 A2917 RMK AO2 SNB16E32 P0000 FZRANO
PAPN 251156Z AUTO 03012KT 4SM BR OVC005 M01/M01 A2918 RMK AO2 UPE10 SLP882 P0000 60000 T10061011 10000 21017 56018 FZRANO
PAPN 251134Z AUTO 02012KT 3SM BR OVC005 M01/M01 A2918 RMK AO2 UPE10 P0000 FZRANO
PAPN 251056Z AUTO 02007KT 3SM UP BR OVC003 M01/M01 A2919 RMK AO2 UPB55 SLP886 P0000 T10061011 FZRANO
PAPN 251020Z AUTO 03007KT 3SM BR OVC003 M01/M01 A2920 RMK AO2 FZRANO
PAPN 251013Z AUTO 02009KT 1 1/4SM BR OVC003 M01/M01 A2921 RMK AO2 FZRANO
PAPN 251006Z AUTO 02007KT 3/4SM BR OVC003 M01/M02 A2921 RMK AO2 FZRANO
PAPN 250956Z AUTO 02006KT 1SM BR OVC003 M01/M02 A2921 RMK AO2 SLP894 T10111017 FZRANO
PAPN 250948Z AUTO 02006KT 2 1/2SM BR OVC003 M01/M02 A2922 RMK AO2 FZRANO
PAPN 250929Z AUTO 03006KT 5SM BR OVC005 M01/M02 A2922 RMK AO2 CIG 003V009 FZRANO
PAPN 250919Z AUTO 05007KT 2SM BR OVC005 M01/M02 A2923 RMK AO2 CIG 003V009 FZRANO
PAPN 250910Z AUTO 03006KT 5SM BR OVC005 M02/M02 A2923 RMK AO2 CIG 002V009 FZRANO
PAPN 250856Z AUTO 04007KT 5SM BR BKN003 OVC008 M01/M02 A2923 RMK AO2 UPB46E53SNB36E46 SLP900 P0000 60000 T10111022 56017 FZRANO
PAPN 250851Z AUTO 03009KT 3SM UP BR BKN003 OVC008 M01/M02 A2923 RMK AO2 UPB46SNB36E46 P0000 FZRANO
PAPN 250846Z AUTO 03007KT 1 1/4SM UP BR OVC003 M01/M02 A2923 RMK AO2 UPB46SNB36E46 CIG 002V008 P0000 FZRANO
PAPN 250833Z AUTO 03007KT 3/4SM BR OVC003 M01/M02 A2924 RMK AO2 CIG 002V008 FZRANO
PAPN 250827Z AUTO 04007KT 1 3/4SM BR BKN003 OVC009 M01/M02 A2924 RMK AO2 CIG 002V006 FZRANO
PAPN 250808Z AUTO 03008KT 3SM BR BKN003 OVC009 M01/M02 A2924 RMK AO2 CIG 002V008 FZRANO
PAPN 250756Z AUTO 04005KT 1 1/4SM BR BKN003 OVC009 M01/M02 A2925 RMK AO2 CIG 002V006 SLP905 T10061017 400391006 FZRANO
PAPN 250656Z AUTO 03007KT 10SM BKN005 OVC046 M01/M01 A2926 RMK AO2 SLP910 T10061011 FZRANO
PAPN 250645Z AUTO 03007KT 10SM SCT005 OVC046 M01/M02 A2927 RMK AO2 FZRANO
PAPN 250556Z AUTO 03006KT 10SM OVC046 00/M01 A2928 RMK AO2 SLP916 T00001011 10039 20000 58022 FZRANO
PAPN 250456Z AUTO 04004KT 10SM OVC044 01/M01 A2931 RMK AO2 SLP925 T00061006 FZRANO
PAPN 250356Z AUTO 05005KT 10SM OVC044 02/M01 A2932 RMK AO2 SLP931 T00171006 FZRANO
PAPN 250329Z AUTO 04005KT 10SM SCT018 OVC044 02/M01 A2933 RMK AO2 FZRANO
PAPN 250315Z AUTO 04005KT 10SM BKN018 OVC044 02/M01 A2933 RMK AO2 FZRANO
PAPN 250256Z AUTO 05005KT 10SM FEW026 OVC044 02/M01 A2934 RMK AO2 SLP938 T00221006 56030 FZRANO
PAPN 250241Z AUTO 05004KT 10SM SCT024 OVC044 03/M01 A2935 RMK AO2
PAPN 250203Z AUTO 04005KT 10SM BKN022 OVC044 03/M01 A2937 RMK AO2
PAPN 250156Z AUTO 07003KT 10SM SCT022 OVC044 03/M01 A2937 RMK AO2 SLP948 T00331006
PAPN 250121Z AUTO 00000KT 10SM SCT022 OVC044 03/M01 A2939 RMK AO2
PAPN 250110Z AUTO 06003KT 10SM BKN022 OVC044 04/M01 A2939 RMK AO2
PAPN 250056Z AUTO 04003KT 10SM SCT022 OVC044 04/M01 A2940 RMK AO2 SLP959 T00391006
PAPN 250048Z AUTO 03004KT 10SM SCT018 OVC044 04/M01 A2941 RMK AO2
PAPN 242356Z AUTO 09003KT 10SM BKN018 OVC043 04/00 A2943 RMK AO2 SLP969 T00390000 10039 20022 58020
PAPN 242332Z AUTO 13003KT 10SM BKN018 OVC043 04/00 A2945 RMK AO2
PAPN 242256Z AUTO 08004KT 10SM FEW022 OVC043 03/M01 A2947 RMK AO2 SLP979 T00331006
PAPN 242249Z AUTO 08004KT 10SM SCT022 OVC043 04/M01 A2947 RMK AO2
PAPN 242220Z AUTO 08003KT 10SM BKN022 OVC045 03/00 A2947 RMK AO2
PAPN 242156Z AUTO 09006KT 10SM OVC045 03/00 A2948 RMK AO2 SLP984 T00330000
PAPN 242138Z AUTO 06005KT 10SM FEW029 OVC045 03/M01 A2948 RMK AO2
PAPN 242105Z AUTO 08005KT 10SM BKN021 OVC045 03/00 A2949 RMK AO2
PAPN 242056Z AUTO 09006KT 10SM SCT021 OVC045 03/00 A2949 RMK AO2 SLP989 T00330000 58007
PAPN 241956Z AUTO 10004KT 10SM SCT020 OVC043 03/00 A2951 RMK AO2 SLP993 T00280000
PAPN 241856Z AUTO 00000KT 10SM OVC041 03/00 A2951 RMK AO2 SLP995 T00280000
PAPN 241756Z AUTO 00000KT 10SM BKN037 OVC047 02/01 A2951 RMK AO2 SLP996 T00220006 10033 20017 58004 FZRANO
PAPN 241656Z AUTO 36003KT 10SM OVC047 03/01 A2952 RMK AO2 SLP999 T00280006
PAPN 241556Z AUTO 33009KT 10SM FEW019 SCT031 OVC041 03/01 A2953 RMK AO2 SLP002 T00330006
PAPN 241456Z AUTO 31005KT 10SM FEW036 OVC046 03/00 A2953 RMK AO2 SLP000 T00330000 53015
PAPN 241356Z AUTO 00000KT 10SM OVC042 03/M01 A2951 RMK AO2 SLP995 T00281011
PAPN 241256Z AUTO 34005KT 10SM OVC042 03/00 A2950 RMK AO2 SLP990 T00280000